sensor_id;sensor_type;location;lat;lon;timestamp;pressure;altitude;pressure_sealevel;temperature;humidity
56518;BME280;42419;48.760;2.322;2023-06-19T00:01:51;100435.66;;;26.36;44.72
56518;BME280;42419;48.760;2.322;2023-06-19T00:04:16;100440.19;;;26.35;45.16
56518;BME280;42419;48.760;2.322;2023-06-19T00:06:41;100434.00;;;26.33;45.14
56518;BME280;42419;48.760;2.322;2023-06-19T00:09:07;100436.72;;;26.33;44.81
56518;BME280;42419;48.760;2.322;2023-06-19T00:11:32;100415.09;;;26.21;44.57
56518;BME280;42419;48.760;2.322;2023-06-19T00:13:57;100438.66;;;26.31;44.52
56518;BME280;42419;48.760;2.322;2023-06-19T00:16:23;100438.78;;;26.30;45.00
56518;BME280;42419;48.760;2.322;2023-06-19T00:18:50;100418.97;;;26.17;44.59
56518;BME280;42419;48.760;2.322;2023-06-19T00:21:15;100444.16;;;26.30;44.66
56518;BME280;42419;48.760;2.322;2023-06-19T00:23:40;100446.00;;;26.29;44.63
56518;BME280;42419;48.760;2.322;2023-06-19T00:26:06;100446.19;;;26.26;44.56
56518;BME280;42419;48.760;2.322;2023-06-19T00:28:32;100452.47;;;26.27;44.89
56518;BME280;42419;48.760;2.322;2023-06-19T00:30:57;100457.84;;;26.27;44.75
56518;BME280;42419;48.760;2.322;2023-06-19T00:33:22;100466.06;;;26.25;44.63
56518;BME280;42419;48.760;2.322;2023-06-19T00:35:51;100464.31;;;26.24;44.62
56518;BME280;42419;48.760;2.322;2023-06-19T00:38:16;100465.63;;;26.19;44.67
56518;BME280;42419;48.760;2.322;2023-06-19T00:40:41;100485.91;;;26.24;44.60
56518;BME280;42419;48.760;2.322;2023-06-19T00:43:07;100464.44;;;26.10;44.60
56518;BME280;42419;48.760;2.322;2023-06-19T00:45:32;100488.72;;;26.23;44.72
56518;BME280;42419;48.760;2.322;2023-06-19T00:47:59;100487.00;;;26.22;44.07
56518;BME280;42419;48.760;2.322;2023-06-19T00:50:25;100494.22;;;26.21;44.17
56518;BME280;42419;48.760;2.322;2023-06-19T00:52:52;100474.38;;;26.10;44.27
56518;BME280;42419;48.760;2.322;2023-06-19T00:55:18;100483.66;;;26.18;44.55
56518;BME280;42419;48.760;2.322;2023-06-19T00:57:45;100493.50;;;26.19;44.28
56518;BME280;42419;48.760;2.322;2023-06-19T01:00:10;100496.19;;;26.19;44.24
56518;BME280;42419;48.760;2.322;2023-06-19T01:02:38;100488.59;;;26.12;44.25
56518;BME280;42419;48.760;2.322;2023-06-19T01:05:03;100510.66;;;26.18;44.62
56518;BME280;42419;48.760;2.322;2023-06-19T01:10:27;100512.69;;;26.15;44.45
56518;BME280;42419;48.760;2.322;2023-06-19T01:13:13;100505.56;;;26.14;44.33
56518;BME280;42419;48.760;2.322;2023-06-19T01:15:41;100512.88;;;26.12;44.35
56518;BME280;42419;48.760;2.322;2023-06-19T01:18:07;100497.97;;;26.06;43.95
56518;BME280;42419;48.760;2.322;2023-06-19T01:20:37;100512.88;;;26.12;43.86
56518;BME280;42419;48.760;2.322;2023-06-19T01:23:07;100483.84;;;26.03;44.41
56518;BME280;42419;48.760;2.322;2023-06-19T01:25:33;100508.56;;;26.09;44.03
56518;BME280;42419;48.760;2.322;2023-06-19T01:27:58;100511.16;;;26.11;44.38
56518;BME280;42419;48.760;2.322;2023-06-19T01:30:24;100507.63;;;26.10;44.04
56518;BME280;42419;48.760;2.322;2023-06-19T01:32:50;100510.31;;;26.10;44.03
56518;BME280;42419;48.760;2.322;2023-06-19T01:35:22;100496.81;;;26.10;44.07
56518;BME280;42419;48.760;2.322;2023-06-19T01:37:50;100508.44;;;26.11;44.31
56518;BME280;42419;48.760;2.322;2023-06-19T01:40:17;100507.81;;;26.07;43.80
56518;BME280;42419;48.760;2.322;2023-06-19T01:42:46;100481.56;;;25.97;43.97
56518;BME280;42419;48.760;2.322;2023-06-19T01:45:12;100508.66;;;26.08;44.12
56518;BME280;42419;48.760;2.322;2023-06-19T01:47:37;100499.28;;;26.01;44.21
56518;BME280;42419;48.760;2.322;2023-06-19T01:50:03;100503.50;;;26.05;44.25
56518;BME280;42419;48.760;2.322;2023-06-19T01:52:29;100502.63;;;26.04;44.12
56518;BME280;42419;48.760;2.322;2023-06-19T01:54:54;100508.88;;;26.05;44.07
56518;BME280;42419;48.760;2.322;2023-06-19T01:57:19;100509.75;;;26.05;44.14
56518;BME280;42419;48.760;2.322;2023-06-19T01:59:45;100514.28;;;26.05;43.82
56518;BME280;42419;48.760;2.322;2023-06-19T02:02:10;100505.41;;;26.03;44.05
56518;BME280;42419;48.760;2.322;2023-06-19T02:04:36;100505.22;;;26.06;43.64
56518;BME280;42419;48.760;2.322;2023-06-19T02:07:01;100501.66;;;26.05;43.92
56518;BME280;42419;48.760;2.322;2023-06-19T02:09:27;100504.38;;;26.05;43.77
56518;BME280;42419;48.760;2.322;2023-06-19T02:11:52;100507.06;;;26.05;44.00
56518;BME280;42419;48.760;2.322;2023-06-19T02:14:18;100499.84;;;26.06;43.65
56518;BME280;42419;48.760;2.322;2023-06-19T02:16:43;100491.75;;;26.06;43.76
56518;BME280;42419;48.760;2.322;2023-06-19T02:19:10;100500.66;;;26.06;43.97
56518;BME280;42419;48.760;2.322;2023-06-19T02:21:35;100504.38;;;26.05;43.91
56518;BME280;42419;48.760;2.322;2023-06-19T02:24:01;100500.88;;;26.03;43.90
56518;BME280;42419;48.760;2.322;2023-06-19T02:26:26;100500.25;;;26.00;43.94
56518;BME280;42419;48.760;2.322;2023-06-19T02:28:54;100517.06;;;26.03;43.90
56518;BME280;42419;48.760;2.322;2023-06-19T02:31:19;100519.78;;;26.03;44.43
56518;BME280;42419;48.760;2.322;2023-06-19T02:33:45;100493.63;;;25.91;43.55
56518;BME280;42419;48.760;2.322;2023-06-19T02:36:10;100513.50;;;26.03;43.84
56518;BME280;42419;48.760;2.322;2023-06-19T02:38:36;100512.66;;;26.02;43.53
56518;BME280;42419;48.760;2.322;2023-06-19T02:41:01;100521.72;;;26.01;43.62
56518;BME280;42419;48.760;2.322;2023-06-19T02:43:26;100516.34;;;26.01;43.93
56518;BME280;42419;48.760;2.322;2023-06-19T02:45:52;100515.34;;;26.02;43.58
56518;BME280;42419;48.760;2.322;2023-06-19T02:48:17;100521.72;;;26.01;43.81
56518;BME280;42419;48.760;2.322;2023-06-19T02:50:42;100499.25;;;25.88;43.87
56518;BME280;42419;48.760;2.322;2023-06-19T02:53:08;100516.66;;;25.97;43.54
56518;BME280;42419;48.760;2.322;2023-06-19T02:55:34;100518.16;;;26.01;43.79
56518;BME280;42419;48.760;2.322;2023-06-19T02:57:59;100520.00;;;26.00;43.39
56518;BME280;42419;48.760;2.322;2023-06-19T03:00:25;100497.50;;;25.87;43.70
56518;BME280;42419;48.760;2.322;2023-06-19T03:02:52;100515.47;;;26.01;43.47
56518;BME280;42419;48.760;2.322;2023-06-19T03:05:18;100512.88;;;25.99;43.28
56518;BME280;42419;48.760;2.322;2023-06-19T03:07:44;100512.78;;;26.01;43.78
56518;BME280;42419;48.760;2.322;2023-06-19T03:10:09;100508.34;;;26.00;43.60
56518;BME280;42419;48.760;2.322;2023-06-19T03:12:35;100479.91;;;25.81;43.49
56518;BME280;42419;48.760;2.322;2023-06-19T03:15:00;100525.41;;;26.00;43.47
56518;BME280;42419;48.760;2.322;2023-06-19T03:17:25;100514.59;;;26.00;43.72
56518;BME280;42419;48.760;2.322;2023-06-19T03:19:51;100510.16;;;25.99;43.28
56518;BME280;42419;48.760;2.322;2023-06-19T03:22:17;100518.25;;;25.99;43.32
56518;BME280;42419;48.760;2.322;2023-06-19T03:24:42;100524.53;;;26.00;43.80
56518;BME280;42419;48.760;2.322;2023-06-19T03:27:08;100500.97;;;25.89;43.69
56518;BME280;42419;48.760;2.322;2023-06-19T03:29:33;100515.66;;;25.98;43.30
56518;BME280;42419;48.760;2.322;2023-06-19T03:31:58;100519.34;;;25.97;43.40
56518;BME280;42419;48.760;2.322;2023-06-19T03:34:24;100520.22;;;25.97;43.31
56518;BME280;42419;48.760;2.322;2023-06-19T03:36:50;100512.44;;;25.92;43.73
56518;BME280;42419;48.760;2.322;2023-06-19T03:39:15;100508.19;;;25.88;43.31
56518;BME280;42419;48.760;2.322;2023-06-19T03:41:40;100527.44;;;25.97;43.40
56518;BME280;42419;48.760;2.322;2023-06-19T03:44:06;100525.91;;;25.92;43.41
56518;BME280;42419;48.760;2.322;2023-06-19T03:46:31;100519.84;;;25.89;43.44
56518;BME280;42419;48.760;2.322;2023-06-19T03:48:56;100534.66;;;25.96;43.56
56518;BME280;42419;48.760;2.322;2023-06-19T03:51:22;100532.94;;;25.95;43.34
56518;BME280;42419;48.760;2.322;2023-06-19T03:53:47;100531.09;;;25.96;43.64
56518;BME280;42419;48.760;2.322;2023-06-19T03:56:12;100520.53;;;25.92;43.36
56518;BME280;42419;48.760;2.322;2023-06-19T03:58:38;100521.28;;;25.95;43.57
56518;BME280;42419;48.760;2.322;2023-06-19T04:01:03;100524.84;;;25.95;43.51
56518;BME280;42419;48.760;2.322;2023-06-19T04:03:30;100524.84;;;25.95;43.56
56518;BME280;42419;48.760;2.322;2023-06-19T04:05:58;100526.66;;;25.95;43.35
56518;BME280;42419;48.760;2.322;2023-06-19T04:08:24;100530.31;;;25.93;43.21
56518;BME280;42419;48.760;2.322;2023-06-19T04:10:50;100536.59;;;25.94;43.36
56518;BME280;42419;48.760;2.322;2023-06-19T04:13:15;100523.94;;;25.82;43.21
56518;BME280;42419;48.760;2.322;2023-06-19T04:15:41;100531.63;;;25.88;43.76
56518;BME280;42419;48.760;2.322;2023-06-19T04:18:09;100533.16;;;25.92;43.59
56518;BME280;42419;48.760;2.322;2023-06-19T04:20:34;100552.69;;;25.96;43.57
56518;BME280;42419;48.760;2.322;2023-06-19T04:23:00;100556.34;;;25.95;43.43
56518;BME280;42419;48.760;2.322;2023-06-19T04:25:26;100559.91;;;25.95;43.64
56518;BME280;42419;48.760;2.322;2023-06-19T04:27:51;100559.91;;;25.95;43.58
56518;BME280;42419;48.760;2.322;2023-06-19T04:30:17;100562.59;;;25.95;43.56
56518;BME280;42419;48.760;2.322;2023-06-19T04:32:42;100566.16;;;25.96;43.23
56518;BME280;42419;48.760;2.322;2023-06-19T04:35:08;100568.97;;;25.94;43.57
56518;BME280;42419;48.760;2.322;2023-06-19T04:37:34;100499.06;;;25.50;43.36
56518;BME280;42419;48.760;2.322;2023-06-19T04:39:59;100556.31;;;25.82;43.29
56518;BME280;42419;48.760;2.322;2023-06-19T04:42:25;100575.31;;;25.93;43.25
56518;BME280;42419;48.760;2.322;2023-06-19T04:44:51;100563.31;;;25.84;43.37
56518;BME280;42419;48.760;2.322;2023-06-19T04:47:19;100573.78;;;25.89;43.20
56518;BME280;42419;48.760;2.322;2023-06-19T04:49:45;100580.19;;;25.88;43.22
56518;BME280;42419;48.760;2.322;2023-06-19T04:52:10;100571.22;;;25.87;43.24
56518;BME280;42419;48.760;2.322;2023-06-19T04:54:36;100580.19;;;25.88;43.06
56518;BME280;42419;48.760;2.322;2023-06-19T04:57:02;100563.06;;;25.75;43.38
56518;BME280;42419;48.760;2.322;2023-06-19T04:59:27;100579.50;;;25.84;43.07
56518;BME280;42419;48.760;2.322;2023-06-19T05:01:53;100574.97;;;25.85;43.30
56518;BME280;42419;48.760;2.322;2023-06-19T05:04:20;100574.09;;;25.84;43.16
56518;BME280;42419;48.760;2.322;2023-06-19T05:06:45;100580.38;;;25.85;43.23
56518;BME280;42419;48.760;2.322;2023-06-19T05:09:11;100581.44;;;25.82;43.59
56518;BME280;42419;48.760;2.322;2023-06-19T05:11:36;100578.53;;;25.85;43.62
56518;BME280;42419;48.760;2.322;2023-06-19T05:14:02;100580.38;;;25.85;43.15
56518;BME280;42419;48.760;2.322;2023-06-19T05:16:27;100568.63;;;25.86;43.26
56518;BME280;42419;48.760;2.322;2023-06-19T05:18:53;100567.66;;;25.87;43.70
56518;BME280;42419;48.760;2.322;2023-06-19T05:21:18;100564.84;;;25.88;43.52
56518;BME280;42419;48.760;2.322;2023-06-19T05:23:43;100564.84;;;25.88;43.56
56518;BME280;42419;48.760;2.322;2023-06-19T05:26:09;100559.44;;;25.88;43.44
56518;BME280;42419;48.760;2.322;2023-06-19T05:28:34;100565.03;;;25.85;43.33
56518;BME280;42419;48.760;2.322;2023-06-19T05:30:59;100567.75;;;25.85;43.56
56518;BME280;42419;48.760;2.322;2023-06-19T05:33:25;100564.31;;;25.83;43.73
56518;BME280;42419;48.760;2.322;2023-06-19T05:35:50;100576.31;;;25.92;43.42
56518;BME280;42419;48.760;2.322;2023-06-19T05:38:18;100579.88;;;25.92;43.71
56518;BME280;42419;48.760;2.322;2023-06-19T05:40:44;100578.03;;;25.93;43.82
56518;BME280;42419;48.760;2.322;2023-06-19T05:43:09;100568.09;;;25.93;43.50
56518;BME280;42419;48.760;2.322;2023-06-19T05:45:35;100569.84;;;25.95;43.66
56518;BME280;42419;48.760;2.322;2023-06-19T05:48:00;100561.75;;;25.95;43.39
56518;BME280;42419;48.760;2.322;2023-06-19T05:50:25;100554.50;;;25.95;43.81
56518;BME280;42419;48.760;2.322;2023-06-19T05:52:51;100559.91;;;25.95;43.63
56518;BME280;42419;48.760;2.322;2023-06-19T05:55:16;100565.31;;;25.95;43.77
56518;BME280;42419;48.760;2.322;2023-06-19T05:57:42;100560.78;;;25.96;43.79
56518;BME280;42419;48.760;2.322;2023-06-19T06:00:08;100561.66;;;25.96;43.80
56518;BME280;42419;48.760;2.322;2023-06-19T06:02:39;100574.19;;;25.97;43.64
56518;BME280;42419;48.760;2.322;2023-06-19T06:05:04;100558.00;;;25.97;43.51
56518;BME280;42419;48.760;2.322;2023-06-19T06:07:30;100575.88;;;25.98;43.72
56518;BME280;42419;48.760;2.322;2023-06-19T06:09:55;100566.81;;;25.99;43.74
56518;BME280;42419;48.760;2.322;2023-06-19T06:12:23;100577.63;;;25.99;43.88
56518;BME280;42419;48.760;2.322;2023-06-19T06:14:49;100573.09;;;26.00;43.73
56518;BME280;42419;48.760;2.322;2023-06-19T06:17:14;100577.63;;;25.99;43.73
56518;BME280;42419;48.760;2.322;2023-06-19T06:19:39;100583.88;;;26.00;42.92
56518;BME280;42419;48.760;2.322;2023-06-19T06:22:05;100583.00;;;25.99;43.86
56518;BME280;42419;48.760;2.322;2023-06-19T06:24:30;100593.81;;;25.99;43.64
56518;BME280;42419;48.760;2.322;2023-06-19T06:26:56;100592.06;;;25.98;43.50
56518;BME280;42419;48.760;2.322;2023-06-19T06:29:21;100590.66;;;25.92;43.74
56518;BME280;42419;48.760;2.322;2023-06-19T06:31:46;100582.97;;;25.86;43.73
56518;BME280;42419;48.760;2.322;2023-06-19T06:34:12;100603.63;;;26.00;43.42
56518;BME280;42419;48.760;2.322;2023-06-19T06:36:38;100585.59;;;25.88;43.54
56518;BME280;42419;48.760;2.322;2023-06-19T06:39:04;100607.09;;;26.02;43.58
56518;BME280;42419;48.760;2.322;2023-06-19T06:41:31;100590.75;;;25.91;43.65
56518;BME280;42419;48.760;2.322;2023-06-19T06:43:56;100607.00;;;26.04;43.79
56518;BME280;42419;48.760;2.322;2023-06-19T06:46:21;100617.69;;;26.05;43.68
56518;BME280;42419;48.760;2.322;2023-06-19T06:48:47;100628.38;;;26.07;43.36
56518;BME280;42419;48.760;2.322;2023-06-19T06:51:13;100621.25;;;26.06;43.44
56518;BME280;42419;48.760;2.322;2023-06-19T06:53:38;100622.09;;;26.06;43.68
56518;BME280;42419;48.760;2.322;2023-06-19T06:56:03;100622.97;;;26.07;43.47
56518;BME280;42419;48.760;2.322;2023-06-19T06:58:29;100604.59;;;25.99;43.89
56518;BME280;42419;48.760;2.322;2023-06-19T07:00:55;100610.00;;;25.99;43.45
56518;BME280;42419;48.760;2.322;2023-06-19T07:03:21;100620.19;;;26.08;43.50
56518;BME280;42419;48.760;2.322;2023-06-19T07:05:47;100624.50;;;26.11;43.29
56518;BME280;42419;48.760;2.322;2023-06-19T07:08:13;100554.97;;;25.75;43.68
56518;BME280;42419;48.760;2.322;2023-06-19T07:10:38;100619.97;;;26.11;43.36
56518;BME280;42419;48.760;2.322;2023-06-19T07:13:04;100619.88;;;26.13;43.50
56518;BME280;42419;48.760;2.322;2023-06-19T07:15:29;100627.00;;;26.14;43.40
56518;BME280;42419;48.760;2.322;2023-06-19T07:17:55;100600.72;;;26.03;43.61
56518;BME280;42419;48.760;2.322;2023-06-19T07:20:21;100620.66;;;26.15;43.37
56518;BME280;42419;48.760;2.322;2023-06-19T07:22:46;100619.66;;;26.16;43.56
56518;BME280;42419;48.760;2.322;2023-06-19T07:25:12;100616.00;;;26.17;43.46
56518;BME280;42419;48.760;2.322;2023-06-19T07:27:39;100597.06;;;26.04;43.45
56518;BME280;42419;48.760;2.322;2023-06-19T07:30:05;100619.56;;;26.17;43.52
56518;BME280;42419;48.760;2.322;2023-06-19T07:32:31;100605.41;;;26.14;43.51
56518;BME280;42419;48.760;2.322;2023-06-19T07:34:56;100606.38;;;26.13;43.37
56518;BME280;42419;48.760;2.322;2023-06-19T07:37:22;100613.09;;;26.20;43.86
56518;BME280;42419;48.760;2.322;2023-06-19T07:39:48;100611.16;;;26.22;43.44
56518;BME280;42419;48.760;2.322;2023-06-19T07:42:18;100602.97;;;26.23;43.89
56518;BME280;42419;48.760;2.322;2023-06-19T07:44:44;100603.72;;;26.25;43.37
56518;BME280;42419;48.760;2.322;2023-06-19T07:47:09;100608.91;;;26.28;43.76
56518;BME280;42419;48.760;2.322;2023-06-19T07:49:35;100606.19;;;26.28;43.58
56518;BME280;42419;48.760;2.322;2023-06-19T07:52:02;100612.41;;;26.30;43.34
56518;BME280;42419;48.760;2.322;2023-06-19T07:54:27;100621.28;;;26.32;43.18
56518;BME280;42419;48.760;2.322;2023-06-19T07:56:52;100619.31;;;26.34;43.69
56518;BME280;42419;48.760;2.322;2023-06-19T07:59:18;100622.03;;;26.34;43.63
56518;BME280;42419;48.760;2.322;2023-06-19T08:01:43;100622.88;;;26.35;43.58
56518;BME280;42419;48.760;2.322;2023-06-19T08:04:09;100619.31;;;26.34;43.45
56518;BME280;42419;48.760;2.322;2023-06-19T08:06:34;100619.22;;;26.36;43.76
56518;BME280;42419;48.760;2.322;2023-06-19T08:09:00;100595.53;;;26.27;43.67
56518;BME280;42419;48.760;2.322;2023-06-19T08:11:26;100612.00;;;26.37;43.75
56518;BME280;42419;48.760;2.322;2023-06-19T08:13:51;100604.94;;;26.34;43.91
56518;BME280;42419;48.760;2.322;2023-06-19T08:16:17;100610.81;;;26.41;43.77
56518;BME280;42419;48.760;2.322;2023-06-19T08:18:44;100596.19;;;26.30;43.54
56518;BME280;42419;48.760;2.322;2023-06-19T08:21:10;100608.44;;;26.36;43.77
56518;BME280;42419;48.760;2.322;2023-06-19T08:23:35;100609.72;;;26.43;43.48
56518;BME280;42419;48.760;2.322;2023-06-19T08:26:01;100593.84;;;26.39;43.66
56518;BME280;42419;48.760;2.322;2023-06-19T08:28:27;100601.53;;;26.45;43.58
56518;BME280;42419;48.760;2.322;2023-06-19T08:30:52;100605.97;;;26.46;43.48
56518;BME280;42419;48.760;2.322;2023-06-19T08:33:17;100614.94;;;26.46;43.26
56518;BME280;42419;48.760;2.322;2023-06-19T08:35:43;100610.38;;;26.47;43.54
56518;BME280;42419;48.760;2.322;2023-06-19T08:38:09;100613.94;;;26.47;43.13
56518;BME280;42419;48.760;2.322;2023-06-19T08:40:34;100606.72;;;26.48;43.54
56518;BME280;42419;48.760;2.322;2023-06-19T08:43:00;100611.16;;;26.49;43.34
56518;BME280;42419;48.760;2.322;2023-06-19T08:45:29;100613.84;;;26.49;43.31
56518;BME280;42419;48.760;2.322;2023-06-19T08:48:00;100603.06;;;26.49;43.36
56518;BME280;42419;48.760;2.322;2023-06-19T08:50:28;100617.41;;;26.49;43.15
56518;BME280;42419;48.760;2.322;2023-06-19T08:52:54;100612.13;;;26.48;43.20
56518;BME280;42419;48.760;2.322;2023-06-19T08:55:20;100591.78;;;26.29;43.01
56518;BME280;42419;48.760;2.322;2023-06-19T08:57:48;100580.28;;;26.26;42.96
56518;BME280;42419;48.760;2.322;2023-06-19T09:00:25;100594.16;;;26.34;42.73
56518;BME280;42419;48.760;2.322;2023-06-19T09:02:52;100572.50;;;26.21;43.56
56518;BME280;42419;48.760;2.322;2023-06-19T09:05:18;100588.00;;;26.32;43.21
56518;BME280;42419;48.760;2.322;2023-06-19T09:07:57;100567.50;;;26.15;43.40
56518;BME280;42419;48.760;2.322;2023-06-19T09:10:23;100589.94;;;26.30;43.47
56518;BME280;42419;48.760;2.322;2023-06-19T09:12:56;100592.69;;;26.28;43.69
56518;BME280;42419;48.760;2.322;2023-06-19T09:15:22;100591.78;;;26.29;43.65
56518;BME280;42419;48.760;2.322;2023-06-19T09:18:02;100566.75;;;26.13;43.13
56518;BME280;42419;48.760;2.322;2023-06-19T09:20:29;100582.03;;;26.27;43.14
56518;BME280;42419;48.760;2.322;2023-06-19T09:22:55;100585.69;;;26.26;43.31
56518;BME280;42419;48.760;2.322;2023-06-19T09:25:20;100564.06;;;26.13;43.10
56518;BME280;42419;48.760;2.322;2023-06-19T09:27:46;100580.50;;;26.23;43.74
56518;BME280;42419;48.760;2.322;2023-06-19T09:30:15;100570.81;;;26.06;43.79
56518;BME280;42419;48.760;2.322;2023-06-19T09:32:41;100591.78;;;26.15;44.11
56518;BME280;42419;48.760;2.322;2023-06-19T09:35:06;100590.09;;;26.14;43.10
56518;BME280;42419;48.760;2.322;2023-06-19T09:37:32;100590.41;;;26.10;42.97
56518;BME280;42419;48.760;2.322;2023-06-19T09:40:02;100558.16;;;25.94;43.19
56518;BME280;42419;48.760;2.322;2023-06-19T09:42:40;100575.25;;;26.07;42.97
56518;BME280;42419;48.760;2.322;2023-06-19T09:45:07;100578.53;;;26.12;43.13
56518;BME280;42419;48.760;2.322;2023-06-19T09:47:38;100557.31;;;25.93;42.35
56518;BME280;42419;48.760;2.322;2023-06-19T09:50:04;100546.72;;;25.90;42.59
56518;BME280;42419;48.760;2.322;2023-06-19T09:52:31;100568.25;;;26.05;42.61
56518;BME280;42419;48.760;2.322;2023-06-19T09:54:57;100569.88;;;26.07;42.94
56518;BME280;42419;48.760;2.322;2023-06-19T09:57:23;100567.81;;;26.11;42.95
56518;BME280;42419;48.760;2.322;2023-06-19T09:59:53;100571.19;;;26.14;43.90
56518;BME280;42419;48.760;2.322;2023-06-19T10:02:20;100576.16;;;26.20;43.32
56518;BME280;42419;48.760;2.322;2023-06-19T10:04:51;100576.16;;;26.20;42.88
56518;BME280;42419;48.760;2.322;2023-06-19T10:07:21;100565.38;;;26.20;42.35
56518;BME280;42419;48.760;2.322;2023-06-19T10:10:01;100561.81;;;26.20;41.68
56518;BME280;42419;48.760;2.322;2023-06-19T10:12:55;100566.22;;;26.21;42.04
56518;BME280;42419;48.760;2.322;2023-06-19T10:15:21;100569.91;;;26.20;42.75
56518;BME280;42419;48.760;2.322;2023-06-19T10:20:30;100564.06;;;26.13;41.50
56518;BME280;42419;48.760;2.322;2023-06-19T10:23:05;100562.13;;;26.15;42.46
56518;BME280;42419;48.760;2.322;2023-06-19T10:25:36;100558.66;;;26.13;41.83
56518;BME280;42419;48.760;2.322;2023-06-19T10:28:02;100548.75;;;26.14;41.82
56518;BME280;42419;48.760;2.322;2023-06-19T10:30:31;100549.63;;;26.14;42.33
56518;BME280;42419;48.760;2.322;2023-06-19T10:32:57;100508.97;;;26.03;42.58
56518;BME280;42419;48.760;2.322;2023-06-19T10:35:22;100516.22;;;26.15;42.59
56518;BME280;42419;48.760;2.322;2023-06-19T10:37:49;100546.75;;;26.30;42.40
56518;BME280;42419;48.760;2.322;2023-06-19T10:40:15;100523.19;;;26.19;41.94
56518;BME280;42419;48.760;2.322;2023-06-19T10:42:41;100545.25;;;26.39;42.63
56518;BME280;42419;48.760;2.322;2023-06-19T10:45:08;100524.47;;;26.26;42.43
56518;BME280;42419;48.760;2.322;2023-06-19T10:47:34;100552.38;;;26.40;42.36
56518;BME280;42419;48.760;2.322;2023-06-19T10:49:59;100555.94;;;26.40;42.22
56518;BME280;42419;48.760;2.322;2023-06-19T10:52:28;100509.22;;;26.13;42.07
56518;BME280;42419;48.760;2.322;2023-06-19T10:54:54;100544.91;;;26.30;41.61
56518;BME280;42419;48.760;2.322;2023-06-19T10:57:27;100506.44;;;26.14;42.40
56518;BME280;42419;48.760;2.322;2023-06-19T10:59:52;100424.66;;;25.74;42.24
56518;BME280;42419;48.760;2.322;2023-06-19T11:02:18;100531.44;;;26.43;42.90
56518;BME280;42419;48.760;2.322;2023-06-19T11:04:43;100530.03;;;26.50;42.77
56518;BME280;42419;48.760;2.322;2023-06-19T11:07:09;100531.34;;;26.57;43.07
56518;BME280;42419;48.760;2.322;2023-06-19T11:09:35;100500.66;;;26.46;43.01
56518;BME280;42419;48.760;2.322;2023-06-19T11:12:00;100526.06;;;26.68;42.86
56518;BME280;42419;48.760;2.322;2023-06-19T11:14:29;100523.88;;;26.73;43.02
56518;BME280;42419;48.760;2.322;2023-06-19T11:16:55;100525.41;;;26.77;43.23
56518;BME280;42419;48.760;2.322;2023-06-19T11:19:21;100523.34;;;26.81;43.01
56518;BME280;42419;48.760;2.322;2023-06-19T11:21:52;100524.84;;;26.85;43.21
56518;BME280;42419;48.760;2.322;2023-06-19T11:24:18;100520.13;;;26.89;42.91
56518;BME280;42419;48.760;2.322;2023-06-19T11:26:49;100524.41;;;26.91;42.58
56518;BME280;42419;48.760;2.322;2023-06-19T11:29:18;100519.78;;;26.93;42.49
56518;BME280;42419;48.760;2.322;2023-06-19T11:31:45;100520.56;;;26.95;42.70
56518;BME280;42419;48.760;2.322;2023-06-19T11:34:12;100512.22;;;26.98;42.94
56518;BME280;42419;48.760;2.322;2023-06-19T11:36:40;100515.66;;;27.00;42.58
56518;BME280;42419;48.760;2.322;2023-06-19T11:39:11;100505.19;;;26.96;42.40
56518;BME280;42419;48.760;2.322;2023-06-19T11:41:38;100515.66;;;27.00;42.30
56518;BME280;42419;48.760;2.322;2023-06-19T11:44:05;100416.28;;;26.42;42.53
56518;BME280;42419;48.760;2.322;2023-06-19T11:46:32;100509.41;;;27.00;42.43
56518;BME280;42419;48.760;2.322;2023-06-19T11:49:14;100505.84;;;26.99;41.96
56518;BME280;42419;48.760;2.322;2023-06-19T11:51:40;100513.09;;;26.99;42.32
56518;BME280;42419;48.760;2.322;2023-06-19T11:54:08;100482.50;;;26.86;42.24
56518;BME280;42419;48.760;2.322;2023-06-19T11:56:37;100489.72;;;26.85;42.23
56518;BME280;42419;48.760;2.322;2023-06-19T11:59:05;100503.34;;;26.96;42.02
56518;BME280;42419;48.760;2.322;2023-06-19T12:01:32;100495.38;;;26.95;41.87
56518;BME280;42419;48.760;2.322;2023-06-19T12:03:58;100498.16;;;26.93;41.83
56518;BME280;42419;48.760;2.322;2023-06-19T12:06:23;100485.53;;;26.81;42.18
56518;BME280;42419;48.760;2.322;2023-06-19T12:08:49;100502.06;;;26.89;41.85
56518;BME280;42419;48.760;2.322;2023-06-19T12:11:15;100498.56;;;26.87;42.03
56518;BME280;42419;48.760;2.322;2023-06-19T12:13:41;100471.81;;;26.71;42.30
56518;BME280;42419;48.760;2.322;2023-06-19T12:16:07;100476.88;;;26.76;42.24
56518;BME280;42419;48.760;2.322;2023-06-19T12:18:34;100491.66;;;26.83;42.40
56518;BME280;42419;48.760;2.322;2023-06-19T12:21:00;100497.94;;;26.84;42.25
56518;BME280;42419;48.760;2.322;2023-06-19T12:23:25;100491.78;;;26.82;42.16
56518;BME280;42419;48.760;2.322;2023-06-19T12:25:50;100489.09;;;26.82;42.00
56518;BME280;42419;48.760;2.322;2023-06-19T12:28:16;100483.16;;;26.76;42.04
56518;BME280;42419;48.760;2.322;2023-06-19T12:30:44;100491.88;;;26.80;42.26
56518;BME280;42419;48.760;2.322;2023-06-19T12:33:10;100461.75;;;26.61;42.07
56518;BME280;42419;48.760;2.322;2023-06-19T12:35:37;100496.53;;;26.78;42.29
56518;BME280;42419;48.760;2.322;2023-06-19T12:38:02;100489.41;;;26.77;42.25
56518;BME280;42419;48.760;2.322;2023-06-19T12:40:28;100484.13;;;26.75;42.35
56518;BME280;42419;48.760;2.322;2023-06-19T12:42:53;100481.50;;;26.74;42.16
56518;BME280;42419;48.760;2.322;2023-06-19T12:45:18;100469.75;;;26.75;42.44
56518;BME280;42419;48.760;2.322;2023-06-19T12:47:44;100470.72;;;26.74;42.70
56518;BME280;42419;48.760;2.322;2023-06-19T12:50:09;100471.72;;;26.73;42.55
56518;BME280;42419;48.760;2.322;2023-06-19T12:52:36;100466.50;;;26.70;42.49